PWSweather.com
Personal Weather Stations
Station Observations
KMIEASTT1
Tawas Bay, East Tawas, MI 48730

Tawas BayEast Tawas, MI 48730

Lat: 44.28, Lon: -83.48

Elevation: 600

Station Type: Davis VantagePro

http://www.tawasbayweather.com

Latest ConditionsUpdated 12:00:13 PM EST Monday, Jan 21, 2019
Currently Today's Max Today's Min Today's Average
Temperature 9.8°F-12.3°C 9.8°F-12.3°C -6.2°F-21.2°C -2.8°F-19.3°C
Dew Point 1.4°F-17.0°C 1.8°F-16.8°C -10.3°F-23.5°C -7.2°F-21.8°C
Winds 3.0 mph NW4.8 kmh NW 19.0 mph -30.6 kmh - - 4.4 mph 7.1 kmh
Wind Gusts 6.0 mph9.7 kmh 22.0 mph35.4 kmh - -
Humidity 68% 83% 68% 81%
Pressure 30.64 in1037.6 mb 30.65 in1037.9 mb 30.47 in1031.8 mb -
Hour Temp Dew Point Humidity Winds Wind Gusts Pressure Precip Precip Rate Daily Precip Total
12:00 PM 9.8°F-12.3°C 1.4°F-17.0°C 68% 3.0 mph NW4.8 kmh NW 6.0 mph9.7 kmh 30.64 in1037.6 mb 0.00 in0.0 mm 0.00 in0.0 mm 0.00 in0.0 mm
11:45 AM 9.6°F-12.4°C 1.8°F-16.8°C 70% 5.0 mph NW8.0 kmh NW 6.0 mph9.7 kmh 30.64 in1037.6 mb 0.00 in0.0 mm 0.00 in0.0 mm 0.00 in0.0 mm
11:30 AM 8.7°F-12.9°C 1.5°F-16.9°C 72% 3.0 mph NW4.8 kmh NW 6.0 mph9.7 kmh 30.64 in1037.6 mb 0.00 in0.0 mm 0.00 in0.0 mm 0.00 in0.0 mm
11:15 AM 7.8°F-13.4°C 1.5°F-16.9°C 75% 3.0 mph NW4.8 kmh NW 6.0 mph9.7 kmh 30.65 in1037.9 mb 0.00 in0.0 mm 0.00 in0.0 mm 0.00 in0.0 mm
11:00 AM 6.8°F-14.0°C 0.9°F-17.3°C 76% 3.0 mph NW4.8 kmh NW 4.0 mph6.4 kmh 30.65 in1037.9 mb 0.00 in0.0 mm 0.00 in0.0 mm 0.00 in0.0 mm
10:45 AM 5.4°F-14.8°C -0.2°F-17.9°C 77% 2.0 mph NNW3.2 kmh NNW 8.0 mph12.9 kmh 30.64 in1037.6 mb 0.00 in0.0 mm 0.00 in0.0 mm 0.00 in0.0 mm
10:30 AM 4.1°F-15.5°C -1.2°F-18.4°C 78% 2.0 mph NW3.2 kmh NW 5.0 mph8.0 kmh 30.64 in1037.6 mb 0.00 in0.0 mm 0.00 in0.0 mm 0.00 in0.0 mm
10:15 AM 2.9°F-16.2°C -2.1°F-18.9°C 79% 1.0 mph NW1.6 kmh NW 4.0 mph6.4 kmh 30.63 in1037.3 mb 0.00 in0.0 mm 0.00 in0.0 mm 0.00 in0.0 mm
10:00 AM 1.1°F-17.2°C -3.9°F-19.9°C 79% 3.0 mph NW4.8 kmh NW 6.0 mph9.7 kmh 30.62 in1036.9 mb 0.00 in0.0 mm 0.00 in0.0 mm 0.00 in0.0 mm
09:45 AM -0.8°F-18.2°C -5.2°F-20.7°C 81% 12.0 mph SE19.3 kmh SE 14.0 mph22.5 kmh 30.62 in1036.9 mb 0.00 in0.0 mm 0.00 in0.0 mm 0.00 in0.0 mm
09:30 AM -1.6°F-18.7°C -6.0°F-21.1°C 81% 12.0 mph SE19.3 kmh SE 15.0 mph24.1 kmh 30.62 in1036.9 mb 0.00 in0.0 mm 0.00 in0.0 mm 0.00 in0.0 mm
09:15 AM -2.5°F-19.2°C -6.9°F-21.6°C 81% 15.0 mph ESE24.1 kmh ESE 15.0 mph24.1 kmh 30.61 in1036.6 mb 0.00 in0.0 mm 0.00 in0.0 mm 0.00 in0.0 mm
09:00 AM -2.6°F-19.2°C -6.7°F-21.5°C 82% 16.0 mph SE25.7 kmh SE 17.0 mph27.4 kmh 30.61 in1036.6 mb 0.00 in0.0 mm 0.00 in0.0 mm 0.00 in0.0 mm
08:45 AM -4.0°F-20.0°C -7.9°F-22.2°C 83% 3.0 mph NNW4.8 kmh NNW 6.0 mph9.7 kmh 30.60 in1036.2 mb 0.00 in0.0 mm 0.00 in0.0 mm 0.00 in0.0 mm
08:30 AM -4.8°F-20.4°C -8.6°F-22.6°C 83% 2.0 mph NW3.2 kmh NW 7.0 mph11.3 kmh 30.59 in1035.9 mb 0.00 in0.0 mm 0.00 in0.0 mm 0.00 in0.0 mm
08:15 AM -5.1°F-20.6°C -8.9°F-22.7°C 83% 4.0 mph NNW6.4 kmh NNW 5.0 mph8.0 kmh 30.59 in1035.9 mb 0.00 in0.0 mm 0.00 in0.0 mm 0.00 in0.0 mm
08:00 AM -5.1°F-20.6°C -8.9°F-22.7°C 83% 3.0 mph NNW4.8 kmh NNW 5.0 mph8.0 kmh 30.58 in1035.6 mb 0.00 in0.0 mm 0.00 in0.0 mm 0.00 in0.0 mm
07:45 AM -5.5°F-20.8°C -9.3°F-22.9°C 83% 4.0 mph NW6.4 kmh NW 5.0 mph8.0 kmh 30.57 in1035.2 mb 0.00 in0.0 mm 0.00 in0.0 mm 0.00 in0.0 mm
07:30 AM -5.7°F-20.9°C -9.5°F-23.1°C 83% 1.0 mph NNW1.6 kmh NNW 6.0 mph9.7 kmh 30.56 in1034.9 mb 0.00 in0.0 mm 0.00 in0.0 mm 0.00 in0.0 mm
07:15 AM -6.0°F-21.1°C -9.8°F-23.2°C 83% 5.0 mph NNW8.0 kmh NNW 8.0 mph12.9 kmh 30.55 in1034.5 mb 0.00 in0.0 mm 0.00 in0.0 mm 0.00 in0.0 mm
07:00 AM -6.2°F-21.2°C -10.3°F-23.5°C 82% 3.0 mph NW4.8 kmh NW 7.0 mph11.3 kmh 30.55 in1034.5 mb 0.00 in0.0 mm 0.00 in0.0 mm 0.00 in0.0 mm
06:45 AM -5.8°F-21.0°C -9.6°F-23.1°C 83% 3.0 mph NW4.8 kmh NW 6.0 mph9.7 kmh 30.55 in1034.5 mb 0.00 in0.0 mm 0.00 in0.0 mm 0.00 in0.0 mm
06:30 AM -5.7°F-20.9°C -9.5°F-23.1°C 83% 3.0 mph NW4.8 kmh NW 5.0 mph8.0 kmh 30.55 in1034.5 mb 0.00 in0.0 mm 0.00 in0.0 mm 0.00 in0.0 mm
06:15 AM -5.6°F-20.9°C -9.4°F-23.0°C 83% 3.0 mph NW4.8 kmh NW 7.0 mph11.3 kmh 30.55 in1034.5 mb 0.00 in0.0 mm 0.00 in0.0 mm 0.00 in0.0 mm
06:00 AM -5.5°F-20.8°C -9.3°F-22.9°C 83% 4.0 mph NNW6.4 kmh NNW 10.0 mph16.1 kmh 30.55 in1034.5 mb 0.00 in0.0 mm 0.00 in0.0 mm 0.00 in0.0 mm
05:45 AM -5.8°F-21.0°C -9.6°F-23.1°C 83% 2.0 mph NW3.2 kmh NW 7.0 mph11.3 kmh 30.56 in1034.9 mb 0.00 in0.0 mm 0.00 in0.0 mm 0.00 in0.0 mm
05:30 AM -6.0°F-21.1°C -9.8°F-23.2°C 83% 2.0 mph NW3.2 kmh NW 17.0 mph27.4 kmh 30.55 in1034.5 mb 0.00 in0.0 mm 0.00 in0.0 mm 0.00 in0.0 mm
05:15 AM -4.4°F-20.2°C -8.5°F-22.5°C 82% 19.0 mph SE30.6 kmh SE 19.0 mph30.6 kmh 30.55 in1034.5 mb 0.00 in0.0 mm 0.00 in0.0 mm 0.00 in0.0 mm
05:00 AM -3.6°F-19.8°C -7.5°F-21.9°C 83% 19.0 mph ESE30.6 kmh ESE 22.0 mph35.4 kmh 30.56 in1034.9 mb 0.00 in0.0 mm 0.00 in0.0 mm 0.00 in0.0 mm
04:45 AM -5.5°F-20.8°C -9.6°F-23.1°C 82% 2.0 mph NW3.2 kmh NW 7.0 mph11.3 kmh 30.55 in1034.5 mb 0.00 in0.0 mm 0.00 in0.0 mm 0.00 in0.0 mm
04:30 AM -5.4°F-20.8°C -9.5°F-23.1°C 82% 2.0 mph NW3.2 kmh NW 6.0 mph9.7 kmh 30.55 in1034.5 mb 0.00 in0.0 mm 0.00 in0.0 mm 0.00 in0.0 mm
04:15 AM -5.3°F-20.7°C -9.1°F-22.8°C 83% 3.0 mph NW4.8 kmh NW 5.0 mph8.0 kmh 30.55 in1034.5 mb 0.00 in0.0 mm 0.00 in0.0 mm 0.00 in0.0 mm
04:00 AM -5.4°F-20.8°C -9.2°F-22.9°C 83% 3.0 mph NNW4.8 kmh NNW 4.0 mph6.4 kmh 30.53 in1033.9 mb 0.00 in0.0 mm 0.00 in0.0 mm 0.00 in0.0 mm
03:45 AM -5.5°F-20.8°C -9.3°F-22.9°C 83% 3.0 mph NW4.8 kmh NW 6.0 mph9.7 kmh 30.52 in1033.5 mb 0.00 in0.0 mm 0.00 in0.0 mm 0.00 in0.0 mm
03:30 AM -5.6°F-20.9°C -9.4°F-23.0°C 83% 4.0 mph NNW6.4 kmh NNW 7.0 mph11.3 kmh 30.53 in1033.9 mb 0.00 in0.0 mm 0.00 in0.0 mm 0.00 in0.0 mm
03:15 AM -5.3°F-20.7°C -9.4°F-23.0°C 82% 2.0 mph NW3.2 kmh NW 6.0 mph9.7 kmh 30.54 in1034.2 mb 0.00 in0.0 mm 0.00 in0.0 mm 0.00 in0.0 mm
03:00 AM -5.2°F-20.7°C -9.3°F-22.9°C 82% 3.0 mph NW4.8 kmh NW 4.0 mph6.4 kmh 30.53 in1033.9 mb 0.00 in0.0 mm 0.00 in0.0 mm 0.00 in0.0 mm
02:45 AM -5.0°F-20.6°C -8.8°F-22.7°C 83% 2.0 mph NW3.2 kmh NW 5.0 mph8.0 kmh 30.53 in1033.9 mb 0.00 in0.0 mm 0.00 in0.0 mm 0.00 in0.0 mm
02:30 AM -5.1°F-20.6°C -9.2°F-22.9°C 82% 2.0 mph NW3.2 kmh NW 5.0 mph8.0 kmh 30.52 in1033.5 mb 0.00 in0.0 mm 0.00 in0.0 mm 0.00 in0.0 mm
02:15 AM -5.0°F-20.6°C -9.1°F-22.8°C 82% 3.0 mph NW4.8 kmh NW 6.0 mph9.7 kmh 30.52 in1033.5 mb 0.00 in0.0 mm 0.00 in0.0 mm 0.00 in0.0 mm
02:00 AM -4.9°F-20.5°C -9.2°F-22.9°C 81% 2.0 mph NNW3.2 kmh NNW 6.0 mph9.7 kmh 30.50 in1032.8 mb 0.00 in0.0 mm 0.00 in0.0 mm 0.00 in0.0 mm
01:45 AM -4.4°F-20.2°C -8.7°F-22.6°C 81% 2.0 mph NW3.2 kmh NW 6.0 mph9.7 kmh 30.51 in1033.2 mb 0.00 in0.0 mm 0.00 in0.0 mm 0.00 in0.0 mm
01:30 AM -4.4°F-20.2°C -8.7°F-22.6°C 81% 3.0 mph NW4.8 kmh NW 5.0 mph8.0 kmh 30.51 in1033.2 mb 0.00 in0.0 mm 0.00 in0.0 mm 0.00 in0.0 mm
01:15 AM -4.5°F-20.3°C -8.8°F-22.7°C 81% 3.0 mph NW4.8 kmh NW 6.0 mph9.7 kmh 30.50 in1032.8 mb 0.00 in0.0 mm 0.00 in0.0 mm 0.00 in0.0 mm
01:00 AM -4.3°F-20.2°C -8.6°F-22.6°C 81% 3.0 mph NW4.8 kmh NW 6.0 mph9.7 kmh 30.50 in1032.8 mb 0.00 in0.0 mm 0.00 in0.0 mm 0.00 in0.0 mm
12:45 AM -4.5°F-20.3°C -9.1°F-22.8°C 80% 4.0 mph NNW6.4 kmh NNW 6.0 mph9.7 kmh 30.49 in1032.5 mb 0.00 in0.0 mm 0.00 in0.0 mm 0.00 in0.0 mm
12:30 AM -4.4°F-20.2°C -8.7°F-22.6°C 81% 2.0 mph NNW3.2 kmh NNW 5.0 mph8.0 kmh 30.48 in1032.2 mb 0.00 in0.0 mm 0.00 in0.0 mm 0.00 in0.0 mm
12:15 AM -4.6°F-20.3°C -9.2°F-22.9°C 80% 3.0 mph NW4.8 kmh NW 7.0 mph11.3 kmh 30.48 in1032.2 mb 0.00 in0.0 mm 0.00 in0.0 mm 0.00 in0.0 mm
12:00 AM -4.4°F-20.2°C -9.0°F-22.8°C 80% 3.0 mph NW4.8 kmh NW 7.0 mph11.3 kmh 30.47 in1031.8 mb 0.00 in0.0 mm 0.00 in0.0 mm 0.00 in0.0 mm